Time,TemperatureF,DewpointF,PressureIn,WindDirection,WindDirectionDegrees,WindSpeedMPH,WindSpeedGustMPH,Humidity,HourlyPrecipIn,Conditions,Clouds,dailyrainin,SoftwareType,DateUTC
2013-02-14 00:00:00,31.3,20.0,29.73,NW,326,1.0,2.0,62,0.00,,,0.00,weatherlink.com 1.10,2013-02-14 05:00:00,
2013-02-14 00:15:00,31.0,22.0,29.74,NNW,329,2.0,4.0,68,0.00,,,0.00,weatherlink.com 1.10,2013-02-14 05:15:00,
2013-02-14 00:31:00,30.2,23.0,29.74,NE,34,2.0,3.0,73,0.00,,,0.00,weatherlink.com 1.10,2013-02-14 05:31:00,
2013-02-14 00:46:00,30.0,23.0,29.75,NW,317,1.0,2.0,76,0.00,,,0.00,weatherlink.com 1.10,2013-02-14 05:46:00,
2013-02-14 01:01:00,29.7,23.0,29.73,ESE,115,0.0,3.0,76,0.00,,,0.00,weatherlink.com 1.10,2013-02-14 06:01:00,
2013-02-14 01:16:00,29.4,23.0,29.73,ESE,105,0.0,2.0,77,0.00,,,0.00,weatherlink.com 1.10,2013-02-14 06:16:00,
2013-02-14 01:31:00,29.3,23.0,29.72,NE,54,1.0,2.0,78,0.00,,,0.00,weatherlink.com 1.10,2013-02-14 06:31:00,
2013-02-14 01:46:00,29.3,23.0,29.72,East,92,1.0,2.0,77,0.00,,,0.00,weatherlink.com 1.10,2013-02-14 06:46:00,
2013-02-14 02:01:00,29.2,23.0,29.72,NE,45,0.0,2.0,77,0.00,,,0.00,weatherlink.com 1.10,2013-02-14 07:01:00,
2013-02-14 02:16:00,28.9,23.0,29.72,NE,46,0.0,0.0,77,0.00,,,0.00,weatherlink.com 1.10,2013-02-14 07:16:00,
2013-02-14 02:31:00,28.5,22.0,29.73,NE,45,0.0,0.0,78,0.00,,,0.00,weatherlink.com 1.10,2013-02-14 07:31:00,
2013-02-14 02:46:00,28.2,22.0,29.74,NE,45,0.0,0.0,78,0.00,,,0.00,weatherlink.com 1.10,2013-02-14 07:46:00,
2013-02-14 03:01:00,27.9,22.0,29.74,NE,46,0.0,0.0,79,0.00,,,0.00,weatherlink.com 1.10,2013-02-14 08:01:00,
2013-02-14 03:16:00,27.8,22.0,29.75,NNE,12,0.0,1.0,80,0.00,,,0.00,weatherlink.com 1.10,2013-02-14 08:16:00,
2013-02-14 03:31:00,27.8,23.0,29.75,West,279,0.0,1.0,81,0.00,,,0.00,weatherlink.com 1.10,2013-02-14 08:31:00,
2013-02-14 03:46:00,27.7,23.0,29.75,NNW,329,1.0,1.0,82,0.00,,,0.00,weatherlink.com 1.10,2013-02-14 08:46:00,
2013-02-14 04:01:00,27.9,23.0,29.76,NNW,330,1.0,1.0,81,0.00,,,0.00,weatherlink.com 1.10,2013-02-14 09:01:00,
2013-02-14 04:16:00,27.6,23.0,29.77,NNW,342,1.0,1.0,81,0.00,,,0.00,weatherlink.com 1.10,2013-02-14 09:16:00,
2013-02-14 04:31:00,27.2,22.0,29.78,NW,321,0.0,1.0,81,0.00,,,0.00,weatherlink.com 1.10,2013-02-14 09:31:00,
2013-02-14 04:46:00,26.6,22.0,29.78,NW,320,0.0,1.0,82,0.00,,,0.00,weatherlink.com 1.10,2013-02-14 09:46:00,
2013-02-14 05:01:00,26.3,21.0,29.78,NW,322,0.0,1.0,81,0.00,,,0.00,weatherlink.com 1.10,2013-02-14 10:01:00,
2013-02-14 05:16:00,25.7,21.0,29.78,NW,323,1.0,1.0,81,0.00,,,0.00,weatherlink.com 1.10,2013-02-14 10:16:00,
2013-02-14 05:31:00,25.1,20.0,29.78,NNW,332,0.0,1.0,81,0.00,,,0.00,weatherlink.com 1.10,2013-02-14 10:31:00,
2013-02-14 05:46:00,24.5,20.0,29.79,NNW,332,0.0,1.0,82,0.00,,,0.00,weatherlink.com 1.10,2013-02-14 10:46:00,
2013-02-14 06:01:00,23.8,19.0,29.80,NNW,336,0.0,1.0,83,0.00,,,0.00,weatherlink.com 1.10,2013-02-14 11:01:00,
2013-02-14 06:16:00,24.3,19.0,29.80,NNW,335,1.0,1.0,80,0.00,,,0.00,weatherlink.com 1.10,2013-02-14 11:16:00,
2013-02-14 06:31:00,24.8,19.0,29.80,NNW,342,0.0,2.0,80,0.00,,,0.00,weatherlink.com 1.10,2013-02-14 11:31:00,
2013-02-14 06:46:00,23.9,18.0,29.81,NNW,347,0.0,1.0,78,0.00,,,0.00,weatherlink.com 1.10,2013-02-14 11:46:00,
2013-02-14 07:01:00,22.5,18.0,29.83,NNW,328,0.0,1.0,81,0.00,,,0.00,weatherlink.com 1.10,2013-02-14 12:01:00,
2013-02-14 07:16:00,22.9,18.0,29.83,NNW,342,0.0,1.0,80,0.00,,,0.00,weatherlink.com 1.10,2013-02-14 12:16:00,
2013-02-14 07:32:00,23.8,18.0,29.84,NNW,331,0.0,1.0,79,0.00,,,0.00,weatherlink.com 1.10,2013-02-14 12:32:00,
2013-02-14 07:47:00,24.1,18.0,29.85,NNW,332,0.0,1.0,78,0.00,,,0.00,weatherlink.com 1.10,2013-02-14 12:47:00,
2013-02-14 08:02:00,25.5,20.0,29.86,NNW,331,0.0,1.0,78,0.00,,,0.00,weatherlink.com 1.10,2013-02-14 13:02:00,
2013-02-14 08:17:00,27.0,20.0,29.86,WNW,291,2.0,2.0,74,0.00,,,0.00,weatherlink.com 1.10,2013-02-14 13:17:00,
2013-02-14 08:32:00,28.7,20.0,29.88,NNE,28,1.0,2.0,69,0.00,,,0.00,weatherlink.com 1.10,2013-02-14 13:32:00,
2013-02-14 08:47:00,29.8,19.0,29.88,NW,323,1.0,3.0,65,0.00,,,0.00,weatherlink.com 1.10,2013-02-14 13:47:00,
2013-02-14 09:02:00,30.8,19.0,29.89,WNW,296,3.0,4.0,63,0.00,,,0.00,weatherlink.com 1.10,2013-02-14 14:02:00,
2013-02-14 09:17:00,31.9,19.0,29.89,SSW,193,0.0,5.0,60,0.00,,,0.00,weatherlink.com 1.10,2013-02-14 14:17:00,
2013-02-14 09:32:00,33.0,20.0,29.90,NW,321,2.0,4.0,58,0.00,,,0.00,weatherlink.com 1.10,2013-02-14 14:32:00,
2013-02-14 09:47:00,33.6,20.0,29.90,ESE,113,0.0,3.0,57,0.00,,,0.00,weatherlink.com 1.10,2013-02-14 14:47:00,
2013-02-14 10:02:00,34.2,19.0,29.90,NNE,12,2.0,5.0,55,0.00,,,0.00,weatherlink.com 1.10,2013-02-14 15:02:00,
2013-02-14 10:17:00,35.1,18.0,29.90,NW,325,3.0,5.0,50,0.00,,,0.00,weatherlink.com 1.10,2013-02-14 15:17:00,
2013-02-14 10:32:00,35.2,18.0,29.90,NNE,30,2.0,8.0,50,0.00,,,0.00,weatherlink.com 1.10,2013-02-14 15:32:00,
2013-02-14 10:47:00,35.8,19.0,29.91,ENE,57,3.0,5.0,50,0.00,,,0.00,weatherlink.com 1.10,2013-02-14 15:47:00,
2013-02-14 11:02:00,35.9,18.0,29.91,NW,311,2.0,6.0,49,0.00,,,0.00,weatherlink.com 1.10,2013-02-14 16:02:00,
2013-02-14 11:17:00,36.4,18.0,29.91,West,279,2.0,7.0,47,0.00,,,0.00,weatherlink.com 1.10,2013-02-14 16:17:00,
2013-02-14 11:32:00,37.3,18.0,29.91,WSW,253,1.0,6.0,46,0.00,,,0.00,weatherlink.com 1.10,2013-02-14 16:32:00,
2013-02-14 11:47:00,37.2,18.0,29.91,West,278,1.0,7.0,46,0.00,,,0.00,weatherlink.com 1.10,2013-02-14 16:47:00,
2013-02-14 12:17:00,37.4,18.0,29.90,NNW,342,2.0,8.0,45,0.00,,,0.00,weatherlink.com 1.10,2013-02-14 17:17:00,
2013-02-14 12:32:00,37.7,17.0,29.90,NE,47,2.0,6.0,44,0.00,,,0.00,weatherlink.com 1.10,2013-02-14 17:32:00,
2013-02-14 12:47:00,37.9,19.0,29.90,SW,235,5.0,5.0,46,0.00,,,0.00,weatherlink.com 1.10,2013-02-14 17:47:00,
2013-02-14 13:02:00,38.1,18.0,29.90,WNW,295,1.0,9.0,44,0.00,,,0.00,weatherlink.com 1.10,2013-02-14 18:02:00,
2013-02-14 13:17:00,38.4,19.0,29.90,West,266,4.0,8.0,45,0.00,,,0.00,weatherlink.com 1.10,2013-02-14 18:17:00,
2013-02-14 13:32:00,38.6,17.0,29.90,WSW,247,6.0,9.0,42,0.00,,,0.00,weatherlink.com 1.10,2013-02-14 18:32:00,
2013-02-14 13:47:00,39.0,17.0,29.89,NW,321,3.0,6.0,41,0.00,,,0.00,weatherlink.com 1.10,2013-02-14 18:47:00,
2013-02-14 14:02:00,39.4,17.0,29.90,WSW,238,5.0,7.0,40,0.00,,,0.00,weatherlink.com 1.10,2013-02-14 19:02:00,
2013-02-14 14:17:00,39.5,17.0,29.90,SSW,207,3.0,6.0,40,0.00,,,0.00,weatherlink.com 1.10,2013-02-14 19:17:00,
2013-02-14 14:33:00,39.6,17.0,29.90,WSW,253,3.0,8.0,40,0.00,,,0.00,weatherlink.com 1.10,2013-02-14 19:33:00,
2013-02-14 14:48:00,39.8,18.0,29.91,SSW,192,1.0,6.0,42,0.00,,,0.00,weatherlink.com 1.10,2013-02-14 19:48:00,
2013-02-14 15:03:00,40.4,18.0,29.92,SW,226,3.0,6.0,40,0.00,,,0.00,weatherlink.com 1.10,2013-02-14 20:03:00,
2013-02-14 15:18:00,40.7,17.0,29.92,NW,319,2.0,7.0,39,0.00,,,0.00,weatherlink.com 1.10,2013-02-14 20:18:00,
2013-02-14 15:33:00,40.4,18.0,29.92,WSW,245,5.0,8.0,40,0.00,,,0.00,weatherlink.com 1.10,2013-02-14 20:33:00,
2013-02-14 15:48:00,40.4,18.0,29.92,WSW,246,0.0,5.0,40,0.00,,,0.00,weatherlink.com 1.10,2013-02-14 20:48:00,
2013-02-14 16:03:00,40.5,18.0,29.93,SW,228,2.0,4.0,40,0.00,,,0.00,weatherlink.com 1.10,2013-02-14 21:03:00,
2013-02-14 16:18:00,39.7,18.0,29.93,WSW,240,5.0,6.0,41,0.00,,,0.00,weatherlink.com 1.10,2013-02-14 21:18:00,
2013-02-14 16:33:00,39.0,18.0,29.93,SW,229,2.0,6.0,43,0.00,,,0.00,weatherlink.com 1.10,2013-02-14 21:33:00,
2013-02-14 16:48:00,38.2,18.0,29.95,WSW,252,1.0,5.0,45,0.00,,,0.00,weatherlink.com 1.10,2013-02-14 21:48:00,
2013-02-14 17:18:00,36.3,18.0,29.95,WSW,238,0.0,1.0,48,0.00,,,0.00,weatherlink.com 1.10,2013-02-14 22:18:00,
2013-02-14 17:33:00,34.7,19.0,29.95,WSW,256,0.0,2.0,52,0.00,,,0.00,weatherlink.com 1.10,2013-02-14 22:33:00,
2013-02-14 17:48:00,33.3,19.0,29.96,West,269,0.0,1.0,57,0.00,,,0.00,weatherlink.com 1.10,2013-02-14 22:48:00,
2013-02-14 18:03:00,32.3,19.0,29.97,West,274,1.0,4.0,59,0.00,,,0.00,weatherlink.com 1.10,2013-02-14 23:03:00,
2013-02-14 18:18:00,32.6,19.0,29.97,WSW,253,1.0,2.0,58,0.00,,,0.00,weatherlink.com 1.10,2013-02-14 23:18:00,
2013-02-14 18:33:00,31.8,18.0,29.97,WSW,252,0.0,0.0,58,0.00,,,0.00,weatherlink.com 1.10,2013-02-14 23:33:00,
2013-02-14 18:48:00,31.2,18.0,29.97,WNW,301,0.0,1.0,59,0.00,,,0.00,weatherlink.com 1.10,2013-02-14 23:48:00,
2013-02-14 19:03:00,30.6,18.0,29.98,WNW,301,0.0,0.0,61,0.00,,,0.00,weatherlink.com 1.10,2013-02-15 00:03:00,
2013-02-14 19:18:00,29.2,18.0,29.98,WNW,301,0.0,1.0,64,0.00,,,0.00,weatherlink.com 1.10,2013-02-15 00:18:00,
2013-02-14 19:33:00,28.9,19.0,29.98,WNW,301,0.0,0.0,67,0.00,,,0.00,weatherlink.com 1.10,2013-02-15 00:33:00,
2013-02-14 19:48:00,29.7,20.0,29.98,SW,233,0.0,1.0,66,0.00,,,0.00,weatherlink.com 1.10,2013-02-15 00:48:00,
2013-02-14 20:03:00,30.5,20.0,29.98,WNW,283,2.0,2.0,65,0.00,,,0.00,weatherlink.com 1.10,2013-02-15 01:03:00,
2013-02-14 20:18:00,31.6,21.0,29.98,WSW,249,2.0,5.0,64,0.00,,,0.00,weatherlink.com 1.10,2013-02-15 01:18:00,
2013-02-14 20:33:00,31.7,20.0,29.98,WSW,245,1.0,4.0,63,0.00,,,0.00,weatherlink.com 1.10,2013-02-15 01:33:00,
2013-02-14 20:48:00,31.7,20.0,29.98,WSW,242,1.0,4.0,62,0.00,,,0.00,weatherlink.com 1.10,2013-02-15 01:48:00,
2013-02-14 21:03:00,31.4,20.0,29.98,WSW,240,2.0,5.0,63,0.00,,,0.00,weatherlink.com 1.10,2013-02-15 02:03:00,
2013-02-14 21:18:00,31.3,20.0,29.98,WSW,250,2.0,4.0,64,0.00,,,0.00,weatherlink.com 1.10,2013-02-15 02:18:00,
2013-02-14 21:33:00,31.0,20.0,29.98,WSW,256,2.0,4.0,65,0.00,,,0.00,weatherlink.com 1.10,2013-02-15 02:33:00,
2013-02-14 21:48:00,30.6,20.0,29.98,WSW,239,3.0,6.0,66,0.00,,,0.00,weatherlink.com 1.10,2013-02-15 02:48:00,
2013-02-14 22:03:00,31.0,20.0,29.98,SW,233,2.0,4.0,65,0.00,,,0.00,weatherlink.com 1.10,2013-02-15 03:03:00,
2013-02-14 22:18:00,31.2,21.0,29.99,SW,235,2.0,6.0,65,0.00,,,0.00,weatherlink.com 1.10,2013-02-15 03:18:00,
2013-02-14 22:33:00,30.9,21.0,29.99,WSW,242,1.0,4.0,66,0.00,,,0.00,weatherlink.com 1.10,2013-02-15 03:33:00,
2013-02-14 22:48:00,31.0,21.0,29.99,WSW,253,4.0,4.0,66,0.00,,,0.00,weatherlink.com 1.10,2013-02-15 03:48:00,
2013-02-14 23:03:00,30.8,21.0,29.99,SW,235,1.0,3.0,67,0.00,,,0.00,weatherlink.com 1.10,2013-02-15 04:03:00,
2013-02-14 23:18:00,30.8,21.0,29.99,WSW,253,0.0,2.0,68,0.00,,,0.00,weatherlink.com 1.10,2013-02-15 04:18:00,
2013-02-14 23:33:00,30.3,21.0,29.99,WSW,253,1.0,2.0,69,0.00,,,0.00,weatherlink.com 1.10,2013-02-15 04:33:00,
2013-02-14 23:48:00,29.8,21.0,29.99,WSW,253,1.0,4.0,70,0.00,,,0.00,weatherlink.com 1.10,2013-02-15 04:48:00,